»·PEaware :: N4818D KAVX-KSAN

N4818D :: KAVX-KSAN

FLIGHT INFORMATION

Flight Status: Arrived
Operator: Privately registered:
United States
More flights under this callsign
Pilot: Ryan V. (26764)
Aircraft: CESSNA 172 SKYHAWK
(C172)
More flights by this aircraft type
Origin: KAVX Catalina
United States
Destination: KSAN San Diego Intl-Lindbergh
United States
More flights between these airports :: More routes between these airports
Route: SXC V208 OCN V23 MZB
File this flight plan on PilotEdge
Remarks: I-8 Rating
Altitude:
(Current/Filed)
5,000ft
Speed:
(Current/Filed)
110kts
Departed: 23-Dec-19 04:18 PM
Arrived: 23-Dec-19 05:21 PM
Distance/Time
Traveled:
74nm/1:03
Distance/Time
To Go:
Arrived

Flight Plot

Page will automatically refresh every two minutes.


Map Options




Map Legend


Flown Route
Filed Route
Departure Airport
Arrival Airport
Navaid (VOR, NDB)
Fix

Horizontal Profiles

Position Reports

Time Latitude Longitude Heading Altitude Ground
Speed
23-Dec-19 16:01 33.403281 -118.415471 229 1549ft 0kts
23-Dec-19 16:02 33.403281 -118.415471 229 1549ft 0kts
23-Dec-19 16:03 33.403281 -118.415471 229 1549ft 0kts
23-Dec-19 16:04 33.403281 -118.415471 229 1549ft 0kts
23-Dec-19 16:05 33.403281 -118.415471 229 1549ft 0kts
23-Dec-19 16:06 33.403281 -118.415471 229 1549ft 0kts
23-Dec-19 16:07 33.403281 -118.415471 229 1549ft 0kts
23-Dec-19 16:08 33.403281 -118.415471 229 1549ft 0kts
23-Dec-19 16:09 33.403281 -118.415471 229 1549ft 0kts
23-Dec-19 16:10 33.403281 -118.415471 229 1549ft 0kts
23-Dec-19 16:11 33.403359 -118.415993 295 1552ft 14kts
23-Dec-19 16:12 33.402611 -118.419076 236 1556ft 30kts
23-Dec-19 16:13 33.402334 -118.419570 236 1554ft 0kts
23-Dec-19 16:14 33.402334 -118.419570 236 1554ft 0kts
23-Dec-19 16:15 33.402334 -118.419570 236 1554ft 0kts
23-Dec-19 16:16 33.402706 -118.419729 52 1553ft 6kts
23-Dec-19 16:17 33.414741 -118.402353 45 2144ft 80kts
23-Dec-19 16:18 33.427833 -118.380962 110 2953ft 86kts
23-Dec-19 16:19 33.407808 -118.371174 174 3837ft 77kts
23-Dec-19 16:20 33.391969 -118.382495 238 4708ft 65kts
23-Dec-19 16:21 33.382068 -118.405179 237 5007ft 108kts
23-Dec-19 16:22 33.364004 -118.390943 87 5001ft 126kts
23-Dec-19 16:23 33.364154 -118.349799 97 4999ft 120kts
23-Dec-19 16:24 33.360349 -118.310303 100 4999ft 118kts
23-Dec-19 16:25 33.355588 -118.271390 101 4999ft 118kts
23-Dec-19 16:26 33.350581 -118.232614 101 4999ft 117kts
23-Dec-19 16:27 33.345484 -118.194190 101 4999ft 117kts
23-Dec-19 16:28 33.340274 -118.155571 101 4972ft 117kts
23-Dec-19 16:29 33.335264 -118.117299 101 4972ft 116kts
23-Dec-19 16:30 33.329259 -118.079588 106 4975ft 113kts
23-Dec-19 16:31 33.323977 -118.041706 100 4972ft 115kts
23-Dec-19 16:32 33.319060 -118.003716 100 4972ft 116kts
23-Dec-19 16:33 33.313908 -117.965580 100 4972ft 115kts
23-Dec-19 16:34 33.308930 -117.927683 99 4972ft 115kts
23-Dec-19 16:35 33.303738 -117.888137 96 4973ft 123kts
23-Dec-19 16:36 33.298070 -117.844940 97 4973ft 134kts
23-Dec-19 16:37 33.292161 -117.800437 97 4972ft 135kts
23-Dec-19 16:38 33.286231 -117.755885 97 4972ft 135kts
23-Dec-19 16:39 33.280292 -117.711374 97 4973ft 135kts
23-Dec-19 16:40 33.274352 -117.666842 97 4973ft 135kts
23-Dec-19 16:41 33.268422 -117.622186 97 4969ft 136kts
23-Dec-19 16:42 33.262353 -117.577570 97 4965ft 135kts
23-Dec-19 16:43 33.256326 -117.533014 97 4966ft 136kts
23-Dec-19 16:44 33.250266 -117.488241 98 4966ft 136kts
23-Dec-19 16:45 33.244202 -117.443543 98 4966ft 136kts
23-Dec-19 16:46 33.221487 -117.412085 157 4967ft 134kts
23-Dec-19 16:47 33.187224 -117.395591 161 4969ft 131kts
23-Dec-19 16:48 33.153065 -117.380786 162 4971ft 129kts
23-Dec-19 16:49 33.119589 -117.366696 162 4972ft 126kts
23-Dec-19 16:50 33.086841 -117.352923 162 4972ft 124kts
23-Dec-19 16:51 33.054241 -117.339195 163 4971ft 123kts
23-Dec-19 16:52 33.021893 -117.325655 163 4971ft 122kts
23-Dec-19 16:53 32.989809 -117.312198 164 4970ft 122kts
23-Dec-19 16:54 32.957636 -117.298714 164 4970ft 121kts
23-Dec-19 16:55 32.925771 -117.285373 164 4969ft 121kts
23-Dec-19 16:56 32.893851 -117.272015 164 4970ft 120kts
23-Dec-19 16:57 32.862128 -117.258751 165 4970ft 120kts
23-Dec-19 16:58 32.838122 -117.235725 102 4970ft 129kts
23-Dec-19 16:59 32.834645 -117.192679 99 4970ft 131kts
23-Dec-19 17:00 32.826371 -117.150743 111 4971ft 130kts
23-Dec-19 17:01 32.816232 -117.109030 111 4972ft 131kts
23-Dec-19 17:02 32.806273 -117.067157 111 4969ft 131kts
23-Dec-19 17:03 32.796794 -117.025265 111 4966ft 130kts
23-Dec-19 17:04 32.787980 -116.983634 111 4963ft 129kts
23-Dec-19 17:05 32.779802 -116.942231 111 4960ft 127kts
23-Dec-19 17:06 32.772665 -116.902859 111 4956ft 111kts
23-Dec-19 17:07 32.760535 -116.876397 177 4955ft 86kts
23-Dec-19 17:08 32.736087 -116.875984 181 4787ft 99kts
23-Dec-19 17:09 32.706677 -116.876898 181 4099ft 108kts
23-Dec-19 17:10 32.683437 -116.888197 248 3954ft 103kts
23-Dec-19 17:11 32.679158 -116.924595 252 3508ft 121kts
23-Dec-19 17:12 32.677201 -116.959594 283 3562ft 105kts
23-Dec-19 17:13 32.688780 -116.993144 281 3122ft 117kts
23-Dec-19 17:14 32.694895 -117.028233 282 2631ft 102kts
23-Dec-19 17:15 32.702850 -117.059388 278 2331ft 96kts
23-Dec-19 17:16 32.710772 -117.090976 275 1745ft 96kts
23-Dec-19 17:17 32.717037 -117.121331 277 1039ft 98kts
23-Dec-19 17:18 32.724385 -117.150830 281 685ft 91kts
23-Dec-19 17:19 32.730195 -117.175841 278 127ft 62kts
23-Dec-19 17:20 32.731535 -117.184802 216 14ft 0kts
23-Dec-19 17:21 32.732339 -117.188872 282 15ft 23kts
23-Dec-19 17:22 32.730699 -117.190881 352 14ft 0kts

Navigation Log

Ident Type
Flight plan parsing failed, navigation log unavailable